createdAt,value
2023-05-31T00:00:24.236Z,51.14
2023-05-31T00:05:47.672Z,51.12
2023-05-31T00:10:51.294Z,51.49
2023-05-31T00:15:54.906Z,51.37
2023-05-31T00:20:58.607Z,51.66
2023-05-31T00:26:02.450Z,52.23
2023-05-31T00:31:06.374Z,52.51
2023-05-31T00:36:09.995Z,52.81
2023-05-31T00:41:13.511Z,53.34
2023-05-31T00:46:27.550Z,53.61
2023-05-31T00:51:32.988Z,54.93
2023-05-31T00:56:36.553Z,54.83
2023-05-31T01:01:39.997Z,54.62
2023-05-31T01:06:43.687Z,55.42
2023-05-31T01:11:53.562Z,55.68
2023-05-31T01:17:05.460Z,56.54
2023-05-31T01:22:22.085Z,56.36
2023-05-31T01:27:27.408Z,57.63
2023-05-31T01:32:31.476Z,58.61
2023-05-31T01:37:34.982Z,57.96
2023-05-31T01:42:38.906Z,58.70
2023-05-31T01:47:44.264Z,58.80
2023-05-31T01:52:47.887Z,58.91
2023-05-31T01:57:53.335Z,59.94
2023-05-31T02:02:57.572Z,60.00
2023-05-31T02:08:01.409Z,60.27
2023-05-31T02:13:05.019Z,60.15
2023-05-31T02:18:09.305Z,60.57
2023-05-31T02:23:12.924Z,60.15
2023-05-31T02:28:17.326Z,60.20
2023-05-31T02:33:21.033Z,60.56
2023-05-31T02:38:24.544Z,60.84
2023-05-31T02:43:28.265Z,61.51
2023-05-31T02:48:31.792Z,61.45
2023-05-31T02:53:35.396Z,61.30
2023-05-31T02:58:38.811Z,61.51
2023-05-31T03:03:43.297Z,62.06
2023-05-31T03:08:47.484Z,62.10
2023-05-31T03:13:50.900Z,62.80
2023-05-31T03:18:54.308Z,62.55
2023-05-31T03:23:57.823Z,62.45
2023-05-31T03:29:01.242Z,62.05
2023-05-31T03:34:04.802Z,62.56
2023-05-31T03:39:08.499Z,62.77
2023-05-31T03:44:11.988Z,62.62
2023-05-31T03:49:15.506Z,62.78
2023-05-31T03:54:18.959Z,63.37
2023-05-31T03:59:22.533Z,63.26
2023-05-31T04:04:26.143Z,63.35
2023-05-31T04:09:30.498Z,63.20
2023-05-31T04:14:34.208Z,63.70
2023-05-31T04:19:37.623Z,63.53
2023-05-31T04:24:41.138Z,63.75
2023-05-31T04:29:44.612Z,63.33
2023-05-31T04:34:49.380Z,63.35
2023-05-31T04:39:52.811Z,63.47
2023-05-31T04:45:02.433Z,63.30
2023-05-31T04:50:06.390Z,63.52
2023-05-31T04:55:10.471Z,63.67
2023-05-31T05:00:17.319Z,63.76
2023-05-31T05:05:20.941Z,63.45
2023-05-31T05:10:25.185Z,63.76
2023-05-31T05:15:28.786Z,63.63
2023-05-31T05:20:32.447Z,63.56
2023-05-31T05:25:37.444Z,63.49
2023-05-31T05:30:40.998Z,63.90
2023-05-31T05:35:44.585Z,63.81
2023-05-31T05:40:48.117Z,64.23
2023-05-31T05:45:51.616Z,64.39
2023-05-31T05:50:55.131Z,64.16
2023-05-31T05:55:58.749Z,64.33
2023-05-31T06:01:03.915Z,64.42
2023-05-31T06:06:07.687Z,64.09
2023-05-31T06:11:11.807Z,63.99
2023-05-31T06:16:16.008Z,63.84
2023-05-31T06:21:19.505Z,63.85
2023-05-31T06:26:24.034Z,63.34
2023-05-31T06:31:28.867Z,62.81
2023-05-31T06:36:33.273Z,62.77
2023-05-31T06:41:37.967Z,62.33
2023-05-31T06:46:41.719Z,61.69
2023-05-31T06:51:45.315Z,61.17
2023-05-31T06:56:48.817Z,60.07
2023-05-31T07:01:54.018Z,58.27
2023-05-31T07:06:57.489Z,56.67
2023-05-31T07:12:01.970Z,55.57
2023-05-31T07:17:05.954Z,54.31
2023-05-31T07:22:09.266Z,55.05
2023-05-31T07:27:12.890Z,54.19
2023-05-31T07:32:16.635Z,52.43
2023-05-31T07:37:20.120Z,51.62
2023-05-31T07:42:23.738Z,50.88
2023-05-31T07:47:27.264Z,50.39
2023-05-31T07:52:30.978Z,49.67
2023-05-31T07:57:34.511Z,49.24
2023-05-31T08:02:38.200Z,48.95
2023-05-31T08:07:42.239Z,48.05
2023-05-31T08:12:45.910Z,46.99
2023-05-31T08:17:49.434Z,47.36
2023-05-31T08:22:54.830Z,47.17
2023-05-31T08:27:58.451Z,46.58
2023-05-31T08:33:03.522Z,46.73
2023-05-31T08:38:07.324Z,46.27
2023-05-31T08:43:17.273Z,46.23
2023-05-31T08:48:39.853Z,45.62
2023-05-31T08:53:44.704Z,44.86
2023-05-31T08:58:52.067Z,44.72
2023-05-31T09:03:55.621Z,44.43
2023-05-31T09:08:59.249Z,44.10
2023-05-31T09:14:02.959Z,43.33
2023-05-31T09:19:07.092Z,43.09
2023-05-31T09:24:11.747Z,42.68
2023-05-31T09:29:16.641Z,42.70
2023-05-31T09:34:28.816Z,41.83
2023-05-31T09:39:32.935Z,40.92
2023-05-31T09:44:36.850Z,40.78
2023-05-31T09:49:40.367Z,41.16
2023-05-31T09:54:43.675Z,40.31
2023-05-31T09:59:47.756Z,39.89
2023-05-31T10:04:52.732Z,40.31
2023-05-31T10:09:56.275Z,40.40
2023-05-31T10:15:10.439Z,40.29
2023-05-31T10:20:18.920Z,40.14
2023-05-31T10:25:30.934Z,39.72
2023-05-31T10:30:39.731Z,39.38
2023-05-31T10:35:43.135Z,38.77
2023-05-31T10:40:57.129Z,38.76
2023-05-31T10:46:04.067Z,38.06
2023-05-31T10:51:08.529Z,38.22
2023-05-31T10:56:14.807Z,37.77
2023-05-31T11:01:25.849Z,37.53
2023-05-31T11:06:30.346Z,37.53
2023-05-31T11:11:33.809Z,37.25
2023-05-31T11:16:50.614Z,36.87
2023-05-31T11:21:57.344Z,36.08
2023-05-31T11:27:05.386Z,36.39
2023-05-31T11:32:09.144Z,35.63
2023-05-31T11:37:13.861Z,35.67
2023-05-31T11:42:17.583Z,35.47
2023-05-31T11:47:22.724Z,35.46
2023-05-31T11:52:26.457Z,34.83
2023-05-31T11:57:30.381Z,34.50
2023-05-31T12:02:34.906Z,33.93
2023-05-31T12:07:39.971Z,33.51
2023-05-31T12:12:43.897Z,33.40
2023-05-31T12:17:48.146Z,33.57
2023-05-31T12:22:51.752Z,33.38
2023-05-31T12:27:55.979Z,33.11
2023-05-31T12:32:59.452Z,32.45
2023-05-31T12:38:03.010Z,32.66
2023-05-31T12:43:08.031Z,32.30
2023-05-31T12:48:12.884Z,32.32
2023-05-31T12:53:17.542Z,32.42
2023-05-31T12:58:21.189Z,32.07
2023-05-31T13:03:25.032Z,32.06
2023-05-31T13:08:28.816Z,31.87
2023-05-31T13:13:32.765Z,31.75
2023-05-31T13:18:36.154Z,31.46
2023-05-31T13:23:39.872Z,31.68
2023-05-31T13:28:43.299Z,31.51
2023-05-31T13:33:48.619Z,31.68
2023-05-31T13:38:53.644Z,31.32
2023-05-31T13:43:57.015Z,30.61
2023-05-31T13:49:00.324Z,29.20
2023-05-31T13:54:03.940Z,28.02
2023-05-31T13:59:07.355Z,25.78
2023-05-31T14:04:10.897Z,24.54
2023-05-31T14:09:14.487Z,21.67
2023-05-31T14:14:18.238Z,19.82
2023-05-31T14:19:22.135Z,18.60
2023-05-31T14:24:26.057Z,17.41
2023-05-31T14:29:29.476Z,14.98
2023-05-31T14:34:32.998Z,14.40
2023-05-31T14:39:37.127Z,12.90
2023-05-31T14:44:41.654Z,11.77
2023-05-31T14:49:45.274Z,11.27
2023-05-31T14:54:48.805Z,10.47
2023-05-31T14:59:52.201Z,10.04
2023-05-31T15:04:55.819Z,9.44
2023-05-31T15:09:59.436Z,9.11
2023-05-31T15:15:03.055Z,8.98
2023-05-31T15:20:07.561Z,8.98
2023-05-31T15:25:11.218Z,8.31
2023-05-31T15:30:15.002Z,7.91
2023-05-31T15:35:18.460Z,7.87
2023-05-31T15:40:22.383Z,7.53
2023-05-31T15:45:25.784Z,7.47
2023-05-31T15:50:29.403Z,7.79
2023-05-31T15:55:33.094Z,7.90
2023-05-31T16:00:36.802Z,8.05
2023-05-31T16:05:40.155Z,8.09
2023-05-31T16:10:43.516Z,8.08
2023-05-31T16:15:47.284Z,8.40
2023-05-31T16:20:51.010Z,8.13
2023-05-31T16:25:54.719Z,8.31
2023-05-31T16:31:00.035Z,8.72
2023-05-31T16:36:04.762Z,8.65
2023-05-31T16:41:08.354Z,8.82
2023-05-31T16:46:11.775Z,9.17
2023-05-31T16:51:15.395Z,9.26
2023-05-31T16:56:19.095Z,9.38
2023-05-31T17:01:23.130Z,9.36
2023-05-31T17:06:26.749Z,9.55
2023-05-31T17:11:31.258Z,9.87
2023-05-31T17:16:34.588Z,9.82
2023-05-31T17:21:39.154Z,10.14
2023-05-31T17:26:44.545Z,10.42
2023-05-31T17:31:48.300Z,10.62
2023-05-31T17:36:51.840Z,10.79
2023-05-31T17:41:55.420Z,10.95
2023-05-31T17:46:59.179Z,11.04
2023-05-31T17:52:02.596Z,11.50
2023-05-31T17:57:07.029Z,12.18
2023-05-31T18:02:10.590Z,12.51
2023-05-31T18:07:14.576Z,12.88
2023-05-31T18:12:18.730Z,13.23
2023-05-31T18:17:23.050Z,13.77
2023-05-31T18:22:26.656Z,14.46
2023-05-31T18:27:30.029Z,15.03
2023-05-31T18:32:34.770Z,15.68
2023-05-31T18:37:41.909Z,16.63
2023-05-31T18:42:45.582Z,17.38
2023-05-31T18:47:50.902Z,17.98
2023-05-31T18:52:54.406Z,18.75
2023-05-31T18:57:57.919Z,19.77
2023-05-31T19:03:01.406Z,20.60
2023-05-31T19:08:05.257Z,21.40
2023-05-31T19:13:10.690Z,22.33
2023-05-31T19:18:19.234Z,22.93
2023-05-31T19:23:23.505Z,23.96
2023-05-31T19:28:27.111Z,24.49
2023-05-31T19:33:31.430Z,25.30
2023-05-31T19:38:34.805Z,26.44
2023-05-31T19:43:38.160Z,26.76
2023-05-31T19:48:41.586Z,27.02
2023-05-31T19:53:45.207Z,27.39
2023-05-31T19:58:48.826Z,28.35
2023-05-31T20:03:52.776Z,28.73
2023-05-31T20:08:57.385Z,29.19
2023-05-31T20:14:01.003Z,29.85
2023-05-31T20:19:04.609Z,30.44
2023-05-31T20:24:08.224Z,30.47
2023-05-31T20:29:11.823Z,30.81
2023-05-31T20:34:15.470Z,31.68
2023-05-31T20:39:19.383Z,31.88
2023-05-31T20:44:22.761Z,32.91
2023-05-31T20:49:26.526Z,32.88
2023-05-31T20:54:29.936Z,32.94
2023-05-31T20:59:33.760Z,33.39
2023-05-31T21:04:37.277Z,33.50
2023-05-31T21:09:40.909Z,33.55
2023-05-31T21:14:45.027Z,34.10
2023-05-31T21:19:49.000Z,34.22
2023-05-31T21:24:52.777Z,34.86
2023-05-31T21:29:56.288Z,34.46
2023-05-31T21:34:59.803Z,34.96
2023-05-31T21:40:03.321Z,34.86
2023-05-31T21:45:07.661Z,35.12
2023-05-31T21:50:11.347Z,35.53
2023-05-31T21:55:14.895Z,35.73
2023-05-31T22:00:18.872Z,35.93
2023-05-31T22:05:22.133Z,36.29
2023-05-31T22:10:25.949Z,36.33
2023-05-31T22:15:29.565Z,36.48
2023-05-31T22:20:35.960Z,36.69
2023-05-31T22:25:39.362Z,37.05
2023-05-31T22:30:43.018Z,36.84
2023-05-31T22:35:46.600Z,37.10
2023-05-31T22:40:50.210Z,37.13
2023-05-31T22:45:53.829Z,37.27
2023-05-31T22:51:00.795Z,38.12
2023-05-31T22:56:04.853Z,38.72
2023-05-31T23:01:08.374Z,38.97
2023-05-31T23:06:13.919Z,39.12
2023-05-31T23:11:18.166Z,39.38
2023-05-31T23:16:21.734Z,39.34
2023-05-31T23:21:27.624Z,39.85
2023-05-31T23:26:31.064Z,40.83
2023-05-31T23:31:34.697Z,41.64
2023-05-31T23:36:38.404Z,42.01
2023-05-31T23:41:42.640Z,41.77
2023-05-31T23:46:45.849Z,42.03
2023-05-31T23:51:49.378Z,42.32
2023-05-31T23:56:52.781Z,42.13
